Attila, Illinois
Current Conditions -  °F | °C
As of 9:30 PM on Saturday 20 Dec 2014 (Local Time) from KMWA Reporting Station
Overcast Overcast  
Wind Chill: 34°   Ceiling: 2900
Heat Index: 37°   Visibility: 10mi
Dew Point: 30°   Wind: 5mph
Humidity: 75%   Direction: 110°ESE
Pressure: 30.29"   Gusts: NA
Location:  37.7887°N, 88.8655°W
Report Text: KMWA 210330Z AUTO 11004KT 10SM OVC029 03/M01 A3029 RMK AO2
Loading
Personal Weather Stations






























Interactive Weather Map New forecast layout! Learn more

10-Day Weather Forecast

Advertisements
Track Severe Weather on mobile